sensor_id;sensor_type;location;lat;lon;timestamp;temperature;humidity
48860;DHT22;34679;51.436;-2.518;2023-04-25T00:02:04;6.10;99.90
48860;DHT22;34679;51.436;-2.518;2023-04-25T00:04:30;6.10;99.90
48860;DHT22;34679;51.436;-2.518;2023-04-25T00:06:59;6.10;99.90
48860;DHT22;34679;51.436;-2.518;2023-04-25T00:09:27;6.10;99.90
48860;DHT22;34679;51.436;-2.518;2023-04-25T00:11:53;6.00;99.90
48860;DHT22;34679;51.436;-2.518;2023-04-25T00:14:18;6.00;99.90
48860;DHT22;34679;51.436;-2.518;2023-04-25T00:16:44;6.10;99.90
48860;DHT22;34679;51.436;-2.518;2023-04-25T00:19:10;6.10;99.90
48860;DHT22;34679;51.436;-2.518;2023-04-25T00:21:36;6.10;99.90
48860;DHT22;34679;51.436;-2.518;2023-04-25T00:24:06;6.00;99.90
48860;DHT22;34679;51.436;-2.518;2023-04-25T00:26:33;6.10;99.90
48860;DHT22;34679;51.436;-2.518;2023-04-25T00:28:58;6.00;99.90
48860;DHT22;34679;51.436;-2.518;2023-04-25T00:31:24;6.10;99.90
48860;DHT22;34679;51.436;-2.518;2023-04-25T00:33:50;6.10;99.90
48860;DHT22;34679;51.436;-2.518;2023-04-25T00:36:15;6.00;99.90
48860;DHT22;34679;51.436;-2.518;2023-04-25T00:38:42;6.10;99.90
48860;DHT22;34679;51.436;-2.518;2023-04-25T00:41:08;6.10;99.90
48860;DHT22;34679;51.436;-2.518;2023-04-25T00:43:34;6.10;99.90
48860;DHT22;34679;51.436;-2.518;2023-04-25T00:46:01;6.10;99.90
48860;DHT22;34679;51.436;-2.518;2023-04-25T00:48:27;6.00;99.90
48860;DHT22;34679;51.436;-2.518;2023-04-25T00:50:55;6.10;99.90
48860;DHT22;34679;51.436;-2.518;2023-04-25T00:53:22;6.00;99.90
48860;DHT22;34679;51.436;-2.518;2023-04-25T00:55:48;6.00;99.90
48860;DHT22;34679;51.436;-2.518;2023-04-25T00:58:19;6.00;99.90
48860;DHT22;34679;51.436;-2.518;2023-04-25T01:00:47;6.10;99.90
48860;DHT22;34679;51.436;-2.518;2023-04-25T01:03:17;6.10;99.90
48860;DHT22;34679;51.436;-2.518;2023-04-25T01:05:45;6.00;99.90
48860;DHT22;34679;51.436;-2.518;2023-04-25T01:08:11;6.00;99.90
48860;DHT22;34679;51.436;-2.518;2023-04-25T01:10:36;6.00;99.90
48860;DHT22;34679;51.436;-2.518;2023-04-25T01:13:03;6.10;99.90
48860;DHT22;34679;51.436;-2.518;2023-04-25T01:15:28;6.00;99.90
48860;DHT22;34679;51.436;-2.518;2023-04-25T01:17:55;6.10;99.90
48860;DHT22;34679;51.436;-2.518;2023-04-25T01:20:22;6.00;99.90
48860;DHT22;34679;51.436;-2.518;2023-04-25T01:22:52;6.00;99.90
48860;DHT22;34679;51.436;-2.518;2023-04-25T01:25:19;6.00;99.90
48860;DHT22;34679;51.436;-2.518;2023-04-25T01:27:45;6.00;99.90
48860;DHT22;34679;51.436;-2.518;2023-04-25T01:30:11;6.00;99.90
48860;DHT22;34679;51.436;-2.518;2023-04-25T01:32:38;6.00;99.90
48860;DHT22;34679;51.436;-2.518;2023-04-25T01:35:05;5.90;99.90
48860;DHT22;34679;51.436;-2.518;2023-04-25T01:37:44;5.90;99.90
48860;DHT22;34679;51.436;-2.518;2023-04-25T01:40:11;5.90;99.90
48860;DHT22;34679;51.436;-2.518;2023-04-25T01:42:42;5.90;99.90
48860;DHT22;34679;51.436;-2.518;2023-04-25T01:45:09;6.00;99.90
48860;DHT22;34679;51.436;-2.518;2023-04-25T01:47:37;6.00;99.90
48860;DHT22;34679;51.436;-2.518;2023-04-25T01:50:03;5.90;99.90
48860;DHT22;34679;51.436;-2.518;2023-04-25T01:52:29;6.00;99.90
48860;DHT22;34679;51.436;-2.518;2023-04-25T01:54:57;6.00;99.90
48860;DHT22;34679;51.436;-2.518;2023-04-25T01:57:23;5.90;99.90
48860;DHT22;34679;51.436;-2.518;2023-04-25T01:59:49;5.90;99.90
48860;DHT22;34679;51.436;-2.518;2023-04-25T02:02:15;5.90;99.90
48860;DHT22;34679;51.436;-2.518;2023-04-25T02:04:41;5.80;99.90
48860;DHT22;34679;51.436;-2.518;2023-04-25T02:07:06;5.80;99.90
48860;DHT22;34679;51.436;-2.518;2023-04-25T02:09:32;5.70;99.90
48860;DHT22;34679;51.436;-2.518;2023-04-25T02:11:58;5.70;99.90
48860;DHT22;34679;51.436;-2.518;2023-04-25T02:14:23;5.70;99.90
48860;DHT22;34679;51.436;-2.518;2023-04-25T02:16:49;5.60;99.90
48860;DHT22;34679;51.436;-2.518;2023-04-25T02:19:16;5.60;99.90
48860;DHT22;34679;51.436;-2.518;2023-04-25T02:21:42;5.50;99.90
48860;DHT22;34679;51.436;-2.518;2023-04-25T02:24:08;5.40;99.90
48860;DHT22;34679;51.436;-2.518;2023-04-25T02:26:34;5.40;99.90
48860;DHT22;34679;51.436;-2.518;2023-04-25T02:28:59;5.30;99.90
48860;DHT22;34679;51.436;-2.518;2023-04-25T02:31:26;5.20;99.90
48860;DHT22;34679;51.436;-2.518;2023-04-25T02:33:52;5.10;99.90
48860;DHT22;34679;51.436;-2.518;2023-04-25T02:36:17;5.10;99.90
48860;DHT22;34679;51.436;-2.518;2023-04-25T02:38:43;5.00;99.90
48860;DHT22;34679;51.436;-2.518;2023-04-25T02:41:09;4.90;99.90
48860;DHT22;34679;51.436;-2.518;2023-04-25T02:43:35;4.90;99.90
48860;DHT22;34679;51.436;-2.518;2023-04-25T02:46:00;4.80;99.90
48860;DHT22;34679;51.436;-2.518;2023-04-25T02:48:26;4.70;99.90
48860;DHT22;34679;51.436;-2.518;2023-04-25T02:50:52;4.60;99.90
48860;DHT22;34679;51.436;-2.518;2023-04-25T02:53:17;4.50;99.90
48860;DHT22;34679;51.436;-2.518;2023-04-25T02:55:43;4.40;99.90
48860;DHT22;34679;51.436;-2.518;2023-04-25T02:58:09;4.40;99.90
48860;DHT22;34679;51.436;-2.518;2023-04-25T03:00:35;4.30;99.90
48860;DHT22;34679;51.436;-2.518;2023-04-25T03:03:01;4.20;99.90
48860;DHT22;34679;51.436;-2.518;2023-04-25T03:05:27;4.10;99.90
48860;DHT22;34679;51.436;-2.518;2023-04-25T03:07:52;4.20;99.90
48860;DHT22;34679;51.436;-2.518;2023-04-25T03:10:18;4.10;99.90
48860;DHT22;34679;51.436;-2.518;2023-04-25T03:12:44;4.10;99.90
48860;DHT22;34679;51.436;-2.518;2023-04-25T03:15:09;4.10;99.90
48860;DHT22;34679;51.436;-2.518;2023-04-25T03:17:35;4.30;99.90
48860;DHT22;34679;51.436;-2.518;2023-04-25T03:20:01;4.20;99.90
48860;DHT22;34679;51.436;-2.518;2023-04-25T03:22:29;4.20;99.90
48860;DHT22;34679;51.436;-2.518;2023-04-25T03:24:55;4.20;99.90
48860;DHT22;34679;51.436;-2.518;2023-04-25T03:27:20;4.20;99.90
48860;DHT22;34679;51.436;-2.518;2023-04-25T03:29:46;4.00;99.90
48860;DHT22;34679;51.436;-2.518;2023-04-25T03:32:12;3.90;99.90
48860;DHT22;34679;51.436;-2.518;2023-04-25T03:34:37;3.80;99.90
48860;DHT22;34679;51.436;-2.518;2023-04-25T03:37:03;3.70;99.90
48860;DHT22;34679;51.436;-2.518;2023-04-25T03:39:29;3.60;99.90
48860;DHT22;34679;51.436;-2.518;2023-04-25T03:41:55;3.50;99.90
48860;DHT22;34679;51.436;-2.518;2023-04-25T03:44:21;3.40;99.90
48860;DHT22;34679;51.436;-2.518;2023-04-25T03:46:46;3.30;99.90
48860;DHT22;34679;51.436;-2.518;2023-04-25T03:49:12;3.30;99.90
48860;DHT22;34679;51.436;-2.518;2023-04-25T03:51:38;3.20;99.90
48860;DHT22;34679;51.436;-2.518;2023-04-25T03:54:04;3.20;99.90
48860;DHT22;34679;51.436;-2.518;2023-04-25T03:56:30;3.20;99.90
48860;DHT22;34679;51.436;-2.518;2023-04-25T03:58:56;3.20;99.90
48860;DHT22;34679;51.436;-2.518;2023-04-25T04:01:21;3.20;99.90
48860;DHT22;34679;51.436;-2.518;2023-04-25T04:03:47;3.20;99.90
48860;DHT22;34679;51.436;-2.518;2023-04-25T04:06:12;3.20;99.90
48860;DHT22;34679;51.436;-2.518;2023-04-25T04:08:39;3.10;99.90
48860;DHT22;34679;51.436;-2.518;2023-04-25T04:11:04;3.00;99.90
48860;DHT22;34679;51.436;-2.518;2023-04-25T04:13:30;2.90;99.90
48860;DHT22;34679;51.436;-2.518;2023-04-25T04:15:56;2.80;99.90
48860;DHT22;34679;51.436;-2.518;2023-04-25T04:18:22;2.80;99.90
48860;DHT22;34679;51.436;-2.518;2023-04-25T04:20:48;2.80;99.90
48860;DHT22;34679;51.436;-2.518;2023-04-25T04:23:15;2.80;99.90
48860;DHT22;34679;51.436;-2.518;2023-04-25T04:25:41;2.70;99.90
48860;DHT22;34679;51.436;-2.518;2023-04-25T04:28:07;2.60;99.90
48860;DHT22;34679;51.436;-2.518;2023-04-25T04:30:33;2.50;99.90
48860;DHT22;34679;51.436;-2.518;2023-04-25T04:33:02;2.60;99.90
48860;DHT22;34679;51.436;-2.518;2023-04-25T04:35:28;2.60;99.90
48860;DHT22;34679;51.436;-2.518;2023-04-25T04:37:54;2.60;99.90
48860;DHT22;34679;51.436;-2.518;2023-04-25T04:40:20;2.50;99.90
48860;DHT22;34679;51.436;-2.518;2023-04-25T04:42:47;2.40;99.90
48860;DHT22;34679;51.436;-2.518;2023-04-25T04:45:14;2.40;99.90
48860;DHT22;34679;51.436;-2.518;2023-04-25T04:47:40;2.40;99.90
48860;DHT22;34679;51.436;-2.518;2023-04-25T04:50:09;2.40;99.90
48860;DHT22;34679;51.436;-2.518;2023-04-25T04:52:36;2.40;99.90
48860;DHT22;34679;51.436;-2.518;2023-04-25T04:55:03;2.40;99.90
48860;DHT22;34679;51.436;-2.518;2023-04-25T04:57:29;2.40;99.90
48860;DHT22;34679;51.436;-2.518;2023-04-25T04:59:55;2.30;99.90
48860;DHT22;34679;51.436;-2.518;2023-04-25T05:02:20;2.40;99.90
48860;DHT22;34679;51.436;-2.518;2023-04-25T05:04:46;2.40;99.90
48860;DHT22;34679;51.436;-2.518;2023-04-25T05:07:12;2.40;99.90
48860;DHT22;34679;51.436;-2.518;2023-04-25T05:09:38;2.40;99.90
48860;DHT22;34679;51.436;-2.518;2023-04-25T05:12:04;2.40;99.90
48860;DHT22;34679;51.436;-2.518;2023-04-25T05:14:30;2.40;99.90
48860;DHT22;34679;51.436;-2.518;2023-04-25T05:16:56;2.50;99.90
48860;DHT22;34679;51.436;-2.518;2023-04-25T05:19:21;2.50;99.90
48860;DHT22;34679;51.436;-2.518;2023-04-25T05:21:47;2.60;99.90
48860;DHT22;34679;51.436;-2.518;2023-04-25T05:24:13;2.70;99.90
48860;DHT22;34679;51.436;-2.518;2023-04-25T05:26:38;2.80;99.90
48860;DHT22;34679;51.436;-2.518;2023-04-25T05:29:04;2.90;99.90
48860;DHT22;34679;51.436;-2.518;2023-04-25T05:31:31;3.10;99.90
48860;DHT22;34679;51.436;-2.518;2023-04-25T05:33:57;3.80;99.90
48860;DHT22;34679;51.436;-2.518;2023-04-25T05:36:23;4.60;99.90
48860;DHT22;34679;51.436;-2.518;2023-04-25T05:38:48;5.50;99.90
48860;DHT22;34679;51.436;-2.518;2023-04-25T05:41:15;6.40;99.90
48860;DHT22;34679;51.436;-2.518;2023-04-25T05:43:40;7.30;99.90
48860;DHT22;34679;51.436;-2.518;2023-04-25T05:46:10;8.00;99.90
48860;DHT22;34679;51.436;-2.518;2023-04-25T05:48:37;8.70;99.90
48860;DHT22;34679;51.436;-2.518;2023-04-25T05:51:03;9.30;99.90
48860;DHT22;34679;51.436;-2.518;2023-04-25T05:53:28;9.90;99.90
48860;DHT22;34679;51.436;-2.518;2023-04-25T05:55:54;10.60;99.90
48860;DHT22;34679;51.436;-2.518;2023-04-25T05:58:20;11.00;99.90
48860;DHT22;34679;51.436;-2.518;2023-04-25T06:00:45;11.60;99.90
48860;DHT22;34679;51.436;-2.518;2023-04-25T06:03:12;11.90;99.90
48860;DHT22;34679;51.436;-2.518;2023-04-25T06:05:42;12.30;99.90
48860;DHT22;34679;51.436;-2.518;2023-04-25T06:08:09;12.80;99.90
48860;DHT22;34679;51.436;-2.518;2023-04-25T06:10:36;13.30;99.90
48860;DHT22;34679;51.436;-2.518;2023-04-25T06:13:02;13.60;99.90
48860;DHT22;34679;51.436;-2.518;2023-04-25T06:15:28;13.90;99.90
48860;DHT22;34679;51.436;-2.518;2023-04-25T06:17:54;14.40;99.90
48860;DHT22;34679;51.436;-2.518;2023-04-25T06:20:20;14.50;99.20
48860;DHT22;34679;51.436;-2.518;2023-04-25T06:22:49;14.90;99.50
48860;DHT22;34679;51.436;-2.518;2023-04-25T06:25:15;15.00;99.10
48860;DHT22;34679;51.436;-2.518;2023-04-25T06:27:41;15.50;97.70
48860;DHT22;34679;51.436;-2.518;2023-04-25T06:30:07;16.10;96.80
48860;DHT22;34679;51.436;-2.518;2023-04-25T06:32:32;16.60;95.70
48860;DHT22;34679;51.436;-2.518;2023-04-25T06:35:00;17.40;95.20
48860;DHT22;34679;51.436;-2.518;2023-04-25T06:37:26;17.40;95.00
48860;DHT22;34679;51.436;-2.518;2023-04-25T06:39:51;18.20;94.10
48860;DHT22;34679;51.436;-2.518;2023-04-25T06:42:17;17.40;94.50
48860;DHT22;34679;51.436;-2.518;2023-04-25T06:44:43;17.40;94.40
48860;DHT22;34679;51.436;-2.518;2023-04-25T06:47:09;17.40;93.40
48860;DHT22;34679;51.436;-2.518;2023-04-25T06:49:34;17.20;95.00
48860;DHT22;34679;51.436;-2.518;2023-04-25T06:52:00;17.70;93.20
48860;DHT22;34679;51.436;-2.518;2023-04-25T06:54:26;16.90;93.80
48860;DHT22;34679;51.436;-2.518;2023-04-25T06:56:54;16.70;94.00
48860;DHT22;34679;51.436;-2.518;2023-04-25T06:59:20;17.70;93.40
48860;DHT22;34679;51.436;-2.518;2023-04-25T07:01:45;17.20;93.20
48860;DHT22;34679;51.436;-2.518;2023-04-25T07:04:11;18.50;92.60
48860;DHT22;34679;51.436;-2.518;2023-04-25T07:06:37;18.00;92.80
48860;DHT22;34679;51.436;-2.518;2023-04-25T07:09:08;18.00;92.70
48860;DHT22;34679;51.436;-2.518;2023-04-25T07:11:35;18.70;92.10
48860;DHT22;34679;51.436;-2.518;2023-04-25T07:14:01;18.10;93.00
48860;DHT22;34679;51.436;-2.518;2023-04-25T07:16:27;17.40;92.40
48860;DHT22;34679;51.436;-2.518;2023-04-25T07:18:53;17.00;93.70
48860;DHT22;34679;51.436;-2.518;2023-04-25T07:21:18;16.80;93.40
48860;DHT22;34679;51.436;-2.518;2023-04-25T07:23:44;17.30;93.40
48860;DHT22;34679;51.436;-2.518;2023-04-25T07:26:10;16.80;94.30
48860;DHT22;34679;51.436;-2.518;2023-04-25T07:28:36;17.80;93.10
48860;DHT22;34679;51.436;-2.518;2023-04-25T07:31:01;17.40;93.50
48860;DHT22;34679;51.436;-2.518;2023-04-25T07:33:28;17.90;93.50
48860;DHT22;34679;51.436;-2.518;2023-04-25T07:35:53;17.50;93.00
48860;DHT22;34679;51.436;-2.518;2023-04-25T07:38:20;18.00;93.00
48860;DHT22;34679;51.436;-2.518;2023-04-25T07:40:47;17.00;93.60
48860;DHT22;34679;51.436;-2.518;2023-04-25T07:43:13;17.10;93.50
48860;DHT22;34679;51.436;-2.518;2023-04-25T07:45:45;16.80;93.60
48860;DHT22;34679;51.436;-2.518;2023-04-25T07:48:11;17.60;93.20
48860;DHT22;34679;51.436;-2.518;2023-04-25T07:50:36;17.20;92.60
48860;DHT22;34679;51.436;-2.518;2023-04-25T07:53:02;17.70;92.70
48860;DHT22;34679;51.436;-2.518;2023-04-25T07:55:28;18.00;92.40
48860;DHT22;34679;51.436;-2.518;2023-04-25T07:57:54;18.10;92.00
48860;DHT22;34679;51.436;-2.518;2023-04-25T08:00:20;17.00;93.50
48860;DHT22;34679;51.436;-2.518;2023-04-25T08:02:45;18.50;92.60
48860;DHT22;34679;51.436;-2.518;2023-04-25T08:05:11;19.40;92.20
48860;DHT22;34679;51.436;-2.518;2023-04-25T08:07:40;17.50;92.10
48860;DHT22;34679;51.436;-2.518;2023-04-25T08:10:06;18.70;91.70
48860;DHT22;34679;51.436;-2.518;2023-04-25T08:12:32;18.50;91.90
48860;DHT22;34679;51.436;-2.518;2023-04-25T08:14:58;18.30;91.40
48860;DHT22;34679;51.436;-2.518;2023-04-25T08:17:24;18.30;91.50
48860;DHT22;34679;51.436;-2.518;2023-04-25T08:19:49;18.20;91.70
48860;DHT22;34679;51.436;-2.518;2023-04-25T08:22:15;17.50;92.10
48860;DHT22;34679;51.436;-2.518;2023-04-25T08:24:41;17.80;91.00
48860;DHT22;34679;51.436;-2.518;2023-04-25T08:27:07;18.20;92.40
48860;DHT22;34679;51.436;-2.518;2023-04-25T08:29:33;19.30;92.50
48860;DHT22;34679;51.436;-2.518;2023-04-25T08:31:59;19.80;90.70
48860;DHT22;34679;51.436;-2.518;2023-04-25T08:34:25;20.50;90.70
48860;DHT22;34679;51.436;-2.518;2023-04-25T08:36:51;19.10;90.70
48860;DHT22;34679;51.436;-2.518;2023-04-25T08:39:17;19.00;91.00
48860;DHT22;34679;51.436;-2.518;2023-04-25T08:41:43;19.20;90.50
48860;DHT22;34679;51.436;-2.518;2023-04-25T08:44:11;19.00;90.40
48860;DHT22;34679;51.436;-2.518;2023-04-25T08:46:38;18.50;90.60
48860;DHT22;34679;51.436;-2.518;2023-04-25T08:49:07;19.10;90.20
48860;DHT22;34679;51.436;-2.518;2023-04-25T08:51:38;19.40;90.00
48860;DHT22;34679;51.436;-2.518;2023-04-25T08:54:10;19.40;90.10
48860;DHT22;34679;51.436;-2.518;2023-04-25T08:56:39;18.80;90.30
48860;DHT22;34679;51.436;-2.518;2023-04-25T08:59:06;18.70;90.50
48860;DHT22;34679;51.436;-2.518;2023-04-25T09:01:34;18.80;88.90
48860;DHT22;34679;51.436;-2.518;2023-04-25T09:04:01;18.50;90.50
48860;DHT22;34679;51.436;-2.518;2023-04-25T09:06:30;19.20;89.70
48860;DHT22;34679;51.436;-2.518;2023-04-25T09:09:04;18.90;87.50
48860;DHT22;34679;51.436;-2.518;2023-04-25T09:11:31;17.80;89.10
48860;DHT22;34679;51.436;-2.518;2023-04-25T09:14:20;16.90;89.90
48860;DHT22;34679;51.436;-2.518;2023-04-25T09:21:51;18.10;88.90
48860;DHT22;34679;51.436;-2.518;2023-04-25T09:27:03;17.10;87.30
48860;DHT22;34679;51.436;-2.518;2023-04-25T09:29:30;16.50;90.40
48860;DHT22;34679;51.436;-2.518;2023-04-25T09:34:42;17.50;90.10
48860;DHT22;34679;51.436;-2.518;2023-04-25T09:37:11;17.60;89.80
48860;DHT22;34679;51.436;-2.518;2023-04-25T09:39:38;16.90;87.50
48860;DHT22;34679;51.436;-2.518;2023-04-25T09:42:05;16.00;89.80
48860;DHT22;34679;51.436;-2.518;2023-04-25T09:44:30;16.00;90.80
48860;DHT22;34679;51.436;-2.518;2023-04-25T09:46:56;17.10;90.70
48860;DHT22;34679;51.436;-2.518;2023-04-25T09:49:23;18.00;90.60
48860;DHT22;34679;51.436;-2.518;2023-04-25T09:51:58;18.20;89.20
48860;DHT22;34679;51.436;-2.518;2023-04-25T09:54:25;18.00;90.10
48860;DHT22;34679;51.436;-2.518;2023-04-25T09:56:54;18.20;90.10
48860;DHT22;34679;51.436;-2.518;2023-04-25T09:59:23;17.70;89.80
48860;DHT22;34679;51.436;-2.518;2023-04-25T10:01:49;17.90;88.00
48860;DHT22;34679;51.436;-2.518;2023-04-25T10:04:22;18.00;88.30
48860;DHT22;34679;51.436;-2.518;2023-04-25T10:06:51;18.20;88.00
48860;DHT22;34679;51.436;-2.518;2023-04-25T10:09:20;18.10;88.70
48860;DHT22;34679;51.436;-2.518;2023-04-25T10:11:47;17.70;89.60
48860;DHT22;34679;51.436;-2.518;2023-04-25T10:14:14;16.70;90.30
48860;DHT22;34679;51.436;-2.518;2023-04-25T10:16:40;16.20;90.00
48860;DHT22;34679;51.436;-2.518;2023-04-25T10:19:07;15.70;89.20
48860;DHT22;34679;51.436;-2.518;2023-04-25T10:21:35;15.40;90.80
48860;DHT22;34679;51.436;-2.518;2023-04-25T10:24:06;14.10;92.20
48860;DHT22;34679;51.436;-2.518;2023-04-25T10:26:32;13.80;92.10
48860;DHT22;34679;51.436;-2.518;2023-04-25T10:29:00;13.40;92.30
48860;DHT22;34679;51.436;-2.518;2023-04-25T10:31:27;13.20;91.90
48860;DHT22;34679;51.436;-2.518;2023-04-25T10:33:53;12.90;91.70
48860;DHT22;34679;51.436;-2.518;2023-04-25T10:36:20;12.20;92.50
48860;DHT22;34679;51.436;-2.518;2023-04-25T10:38:48;11.90;93.20
48860;DHT22;34679;51.436;-2.518;2023-04-25T10:41:17;12.00;92.70
48860;DHT22;34679;51.436;-2.518;2023-04-25T10:43:45;12.10;94.40
48860;DHT22;34679;51.436;-2.518;2023-04-25T10:46:22;12.10;93.20
48860;DHT22;34679;51.436;-2.518;2023-04-25T10:48:58;12.10;93.10
48860;DHT22;34679;51.436;-2.518;2023-04-25T10:51:29;12.00;93.60
48860;DHT22;34679;51.436;-2.518;2023-04-25T10:56:53;12.00;95.10
48860;DHT22;34679;51.436;-2.518;2023-04-25T10:59:19;12.20;93.80
48860;DHT22;34679;51.436;-2.518;2023-04-25T11:01:47;12.10;93.20
48860;DHT22;34679;51.436;-2.518;2023-04-25T11:04:33;12.10;93.20
48860;DHT22;34679;51.436;-2.518;2023-04-25T11:07:07;12.00;93.40
48860;DHT22;34679;51.436;-2.518;2023-04-25T11:09:39;12.20;94.20
48860;DHT22;34679;51.436;-2.518;2023-04-25T11:12:07;12.10;92.80
48860;DHT22;34679;51.436;-2.518;2023-04-25T11:14:34;12.10;92.90
48860;DHT22;34679;51.436;-2.518;2023-04-25T11:17:00;12.10;93.20
48860;DHT22;34679;51.436;-2.518;2023-04-25T11:19:29;11.90;93.30
48860;DHT22;34679;51.436;-2.518;2023-04-25T11:21:56;12.00;93.60
48860;DHT22;34679;51.436;-2.518;2023-04-25T11:24:33;11.90;92.90
48860;DHT22;34679;51.436;-2.518;2023-04-25T11:27:00;12.20;93.40
48860;DHT22;34679;51.436;-2.518;2023-04-25T11:29:31;12.30;93.40
48860;DHT22;34679;51.436;-2.518;2023-04-25T11:31:57;12.60;93.10
48860;DHT22;34679;51.436;-2.518;2023-04-25T11:34:24;12.60;92.30
48860;DHT22;34679;51.436;-2.518;2023-04-25T11:36:51;12.50;93.20
48860;DHT22;34679;51.436;-2.518;2023-04-25T11:39:18;12.90;94.00
48860;DHT22;34679;51.436;-2.518;2023-04-25T11:41:44;13.20;94.20
48860;DHT22;34679;51.436;-2.518;2023-04-25T11:44:10;13.10;93.30
48860;DHT22;34679;51.436;-2.518;2023-04-25T11:46:36;12.60;92.50
48860;DHT22;34679;51.436;-2.518;2023-04-25T11:49:02;12.70;92.60
48860;DHT22;34679;51.436;-2.518;2023-04-25T11:51:29;12.90;92.90
48860;DHT22;34679;51.436;-2.518;2023-04-25T11:53:56;12.90;91.70
48860;DHT22;34679;51.436;-2.518;2023-04-25T11:56:22;13.00;92.40
48860;DHT22;34679;51.436;-2.518;2023-04-25T11:58:58;12.90;92.10
48860;DHT22;34679;51.436;-2.518;2023-04-25T12:01:34;13.00;92.90
48860;DHT22;34679;51.436;-2.518;2023-04-25T12:04:30;13.10;93.80
48860;DHT22;34679;51.436;-2.518;2023-04-25T12:06:57;12.80;92.40
48860;DHT22;34679;51.436;-2.518;2023-04-25T12:09:31;12.80;92.00
48860;DHT22;34679;51.436;-2.518;2023-04-25T12:11:59;12.20;91.30
48860;DHT22;34679;51.436;-2.518;2023-04-25T12:14:32;12.90;92.90
48860;DHT22;34679;51.436;-2.518;2023-04-25T12:17:00;13.50;92.30
48860;DHT22;34679;51.436;-2.518;2023-04-25T12:19:26;13.40;92.30
48860;DHT22;34679;51.436;-2.518;2023-04-25T12:21:57;13.20;92.10
48860;DHT22;34679;51.436;-2.518;2023-04-25T12:24:24;13.00;92.30
48860;DHT22;34679;51.436;-2.518;2023-04-25T12:27:02;12.80;93.00
48860;DHT22;34679;51.436;-2.518;2023-04-25T12:29:29;12.80;92.00
48860;DHT22;34679;51.436;-2.518;2023-04-25T12:31:56;12.80;92.20
48860;DHT22;34679;51.436;-2.518;2023-04-25T12:34:23;13.10;93.00
48860;DHT22;34679;51.436;-2.518;2023-04-25T12:36:50;13.60;91.50
48860;DHT22;34679;51.436;-2.518;2023-04-25T12:39:21;13.80;92.00
48860;DHT22;34679;51.436;-2.518;2023-04-25T12:41:52;14.20;92.50
48860;DHT22;34679;51.436;-2.518;2023-04-25T12:44:21;14.30;92.00
48860;DHT22;34679;51.436;-2.518;2023-04-25T12:46:48;13.50;92.70
48860;DHT22;34679;51.436;-2.518;2023-04-25T12:49:14;13.60;92.20
48860;DHT22;34679;51.436;-2.518;2023-04-25T12:51:40;13.70;91.90
48860;DHT22;34679;51.436;-2.518;2023-04-25T12:54:07;13.70;92.60
48860;DHT22;34679;51.436;-2.518;2023-04-25T12:56:34;13.90;92.60
48860;DHT22;34679;51.436;-2.518;2023-04-25T12:59:00;14.10;93.00
48860;DHT22;34679;51.436;-2.518;2023-04-25T13:01:26;13.70;91.90
48860;DHT22;34679;51.436;-2.518;2023-04-25T13:03:52;13.90;92.80
48860;DHT22;34679;51.436;-2.518;2023-04-25T13:06:22;13.80;92.50
48860;DHT22;34679;51.436;-2.518;2023-04-25T13:08:48;13.60;92.00
48860;DHT22;34679;51.436;-2.518;2023-04-25T13:11:14;13.50;92.10
48860;DHT22;34679;51.436;-2.518;2023-04-25T13:13:40;13.40;92.00
48860;DHT22;34679;51.436;-2.518;2023-04-25T13:16:07;13.20;92.90
48860;DHT22;34679;51.436;-2.518;2023-04-25T13:18:33;13.40;92.40
48860;DHT22;34679;51.436;-2.518;2023-04-25T13:20:59;13.70;92.50
48860;DHT22;34679;51.436;-2.518;2023-04-25T13:23:27;14.10;92.80
48860;DHT22;34679;51.436;-2.518;2023-04-25T13:25:53;14.00;93.10
48860;DHT22;34679;51.436;-2.518;2023-04-25T13:28:19;13.80;92.10
48860;DHT22;34679;51.436;-2.518;2023-04-25T13:30:45;13.70;91.60
48860;DHT22;34679;51.436;-2.518;2023-04-25T13:33:12;13.20;91.80
48860;DHT22;34679;51.436;-2.518;2023-04-25T13:35:38;12.70;92.60
48860;DHT22;34679;51.436;-2.518;2023-04-25T13:38:04;12.80;92.10
48860;DHT22;34679;51.436;-2.518;2023-04-25T13:40:30;12.40;91.80
48860;DHT22;34679;51.436;-2.518;2023-04-25T13:42:57;12.50;93.10
48860;DHT22;34679;51.436;-2.518;2023-04-25T13:45:23;12.70;91.80
48860;DHT22;34679;51.436;-2.518;2023-04-25T13:47:49;12.80;92.20
48860;DHT22;34679;51.436;-2.518;2023-04-25T13:50:15;13.00;92.10
48860;DHT22;34679;51.436;-2.518;2023-04-25T13:52:41;12.90;92.20
48860;DHT22;34679;51.436;-2.518;2023-04-25T13:55:07;13.00;92.10
48860;DHT22;34679;51.436;-2.518;2023-04-25T13:57:34;13.60;92.80
48860;DHT22;34679;51.436;-2.518;2023-04-25T14:00:00;14.00;92.70
48860;DHT22;34679;51.436;-2.518;2023-04-25T14:02:31;14.30;91.60
48860;DHT22;34679;51.436;-2.518;2023-04-25T14:04:57;14.00;91.30
48860;DHT22;34679;51.436;-2.518;2023-04-25T14:07:22;13.50;91.40
48860;DHT22;34679;51.436;-2.518;2023-04-25T14:09:48;13.60;91.60
48860;DHT22;34679;51.436;-2.518;2023-04-25T14:12:15;13.60;91.40
48860;DHT22;34679;51.436;-2.518;2023-04-25T14:14:41;13.60;91.40
48860;DHT22;34679;51.436;-2.518;2023-04-25T14:17:08;13.60;91.00
48860;DHT22;34679;51.436;-2.518;2023-04-25T14:19:34;13.10;92.60
48860;DHT22;34679;51.436;-2.518;2023-04-25T14:22:00;13.30;92.70
48860;DHT22;34679;51.436;-2.518;2023-04-25T14:24:26;13.50;92.60
48860;DHT22;34679;51.436;-2.518;2023-04-25T14:26:51;13.60;92.50
48860;DHT22;34679;51.436;-2.518;2023-04-25T14:29:17;14.00;91.60
48860;DHT22;34679;51.436;-2.518;2023-04-25T14:31:43;14.00;91.30
48860;DHT22;34679;51.436;-2.518;2023-04-25T14:34:08;13.60;92.10
48860;DHT22;34679;51.436;-2.518;2023-04-25T14:36:35;13.80;92.40
48860;DHT22;34679;51.436;-2.518;2023-04-25T14:39:01;13.60;91.40
48860;DHT22;34679;51.436;-2.518;2023-04-25T14:41:27;13.60;91.60
48860;DHT22;34679;51.436;-2.518;2023-04-25T14:43:53;13.40;91.80
48860;DHT22;34679;51.436;-2.518;2023-04-25T14:46:22;13.80;91.40
48860;DHT22;34679;51.436;-2.518;2023-04-25T14:48:49;13.90;92.30
48860;DHT22;34679;51.436;-2.518;2023-04-25T14:51:14;14.10;92.40
48860;DHT22;34679;51.436;-2.518;2023-04-25T14:53:41;14.30;91.30
48860;DHT22;34679;51.436;-2.518;2023-04-25T14:56:07;14.50;90.90
48860;DHT22;34679;51.436;-2.518;2023-04-25T14:58:33;14.30;91.70
48860;DHT22;34679;51.436;-2.518;2023-04-25T15:00:59;14.50;90.80
48860;DHT22;34679;51.436;-2.518;2023-04-25T15:03:25;14.60;91.80
48860;DHT22;34679;51.436;-2.518;2023-04-25T15:05:52;14.50;90.30
48860;DHT22;34679;51.436;-2.518;2023-04-25T15:08:17;14.80;91.00
48860;DHT22;34679;51.436;-2.518;2023-04-25T15:10:43;14.90;89.40
48860;DHT22;34679;51.436;-2.518;2023-04-25T15:13:09;14.80;90.10
48860;DHT22;34679;51.436;-2.518;2023-04-25T15:15:35;14.90;90.50
48860;DHT22;34679;51.436;-2.518;2023-04-25T15:18:02;14.80;90.30
48860;DHT22;34679;51.436;-2.518;2023-04-25T15:20:28;15.00;90.40
48860;DHT22;34679;51.436;-2.518;2023-04-25T15:22:54;14.90;90.40
48860;DHT22;34679;51.436;-2.518;2023-04-25T15:25:19;14.60;91.10
48860;DHT22;34679;51.436;-2.518;2023-04-25T15:27:46;14.20;91.60
48860;DHT22;34679;51.436;-2.518;2023-04-25T15:30:17;13.90;91.90
48860;DHT22;34679;51.436;-2.518;2023-04-25T15:32:46;13.70;91.70
48860;DHT22;34679;51.436;-2.518;2023-04-25T15:35:13;13.90;91.70